Time;durP1;ratioP1;P1;durP2;ratioP2;P2;SDS_P1;SDS_P2;PMS_P1;PMS_P2;Temp;Humidity;BMP_temperature;BMP_pressure;BME280_temperature;BME280_humidity;BME280_pressure;Samples;Min_cycle;Max_cycle;Signal;HPM_P1;HPM_P2
2021/10/27 00:00:07;;;;;;;;;;;;;;;;;;345785;28;971;-88
2021/10/27 00:00:24;;;;;;;;;;;;;;;;;;345772;28;866;-86
2021/10/27 00:01:16;;;;;;;;;;;;;;;;;;347104;28;1054;-87
2021/10/27 00:01:26;;;;;;;;;;;;;;;;;;345595;28;1323;-87
2021/10/27 00:01:36;;;;;;;;;;;;;;;;;;347226;28;838;-87
2021/10/27 00:01:47;;;;;;;;;;;;;;;;;;345627;28;1256;-84
2021/10/27 00:01:57;;;;;;;;;;;;;;;;;;345722;28;802;-86
2021/10/27 00:02:08;;;;;;;;;;;;;;;;;;345834;28;1043;-85
2021/10/27 00:02:18;;;;;;;;;;;;;;;;;;347159;28;917;-85
2021/10/27 00:02:28;;;;;;;;;;;;;;;;;;347145;28;953;-85
2021/10/27 00:02:41;;;;;;;;;;;;;;;;;;343010;28;1148;-85
2021/10/27 00:02:52;;;;;;;;;;;;;;;;;;345841;28;833;-82
2021/10/27 00:03:02;;;;;;;;;;;;;;;;;;345589;28;1479;-87
2021/10/27 00:03:12;;;;;;;;;;;;;;;;;;345723;28;1479;-83
2021/10/27 00:03:49;;;;;;;;;;;;;;;;;;347342;28;976;-82
2021/10/27 00:03:59;;;;;;;;;;;;;;;;;;345811;28;857;-89
2021/10/27 00:04:25;;;;;;;;;;;;;;;;;;345973;28;1455;-84
2021/10/27 00:04:51;;;;;;;;;;;;;;;;;;345802;28;976;-87
2021/10/27 00:05:02;;;;;;;;;;;;;;;;;;346941;28;941;-84
2021/10/27 00:05:13;;;;;;;;;;;;;;;;;;346062;28;916;-82
2021/10/27 00:05:24;;;;;;;;;;;;;;;;;;347203;28;825;-78
2021/10/27 00:05:34;;;;;;;;;;;;;;;;;;348515;28;1012;-85
2021/10/27 00:05:44;;;;;;;;;;;;;;;;;;344479;28;1187;-85
2021/10/27 00:05:55;;;;;;;;;;;;;;;;;;344430;28;889;-79
2021/10/27 00:06:05;;;;;;;;;;;;;;;;;;345897;28;838;-80
2021/10/27 00:06:15;;;;;;;;;;;;;;;;;;346065;28;818;-86
2021/10/27 00:06:27;;;;;;;;;;;;;;;;;;344342;28;1258;-86
2021/10/27 00:06:38;;;;;;;;;;;;;;;;;;347107;28;1019;-82
2021/10/27 00:06:48;;;;;;;;;;;;;;;;;;347386;28;896;-86
2021/10/27 00:06:58;;;;;;;;;;;;;;;;;;345785;28;873;-87
2021/10/27 00:07:09;;;;;;;;;;;;;;;;;;344359;28;826;-90
2021/10/27 00:07:19;;;;;;;;;;;;;;;;;;345867;28;842;-86
2021/10/27 00:07:45;;;;;;;;;;;;;;;;;;345710;28;977;-87
2021/10/27 00:07:56;;;;;;;;;;;;;;;;;;345684;28;842;-88
2021/10/27 00:08:06;;;;;;;;;;;;;;;;;;348244;28;1181;-86
2021/10/27 00:08:16;;;;;;;;;;;;;;;;;;349938;28;1722;-86
2021/10/27 00:08:49;;;;;;;;;;;;;;;;;;347210;28;1043;-81
2021/10/27 00:09:00;;;;;;;;;;;;;;;;;;341888;29;843;-87
2021/10/27 00:09:26;;;;;;;;;;;;;;;;;;343960;28;962;-87
2021/10/27 00:09:36;;;;;;;;;;;;;;;;;;345697;28;1638;-83
2021/10/27 00:09:47;;;;;;;;;;;;;;;;;;345822;28;984;-87
2021/10/27 00:10:07;;;;;;;;;;;;;;;;;;343154;28;922;-83
2021/10/27 00:10:17;;;;;;;;;;;;;;;;;;345608;28;865;-85
2021/10/27 00:10:28;;;;;;;;;;;;;;;;;;344456;28;1370;-84
2021/10/27 00:11:04;;;;;;;;;;;;;;;;;;347209;28;1024;-90
2021/10/27 00:11:20;;;;;;;;;;;;;;;;;;347069;28;1435;-89
2021/10/27 00:11:31;;;;;;;;;;;;;;;;;;344718;28;827;-82
2021/10/27 00:11:41;;;;;;;;;;;;;;;;;;346218;28;802;-86
2021/10/27 00:12:04;;;;;;;;;;;;;;;;;;344417;28;992;-84
2021/10/27 00:12:40;;;;;;;;;;;;;;;;;;345675;28;1437;-86
2021/10/27 00:12:50;;;;;;;;;;;;;;;;;;345911;28;479;-84
2021/10/27 00:13:01;;;;;;;;;;;;;;;;;;345797;28;1044;-80
2021/10/27 00:13:11;;;;;;;;;;;;;;;;;;345680;28;1597;-84
2021/10/27 00:13:28;;;;;;;;;;;;;;;;;;344356;28;1411;-82
2021/10/27 00:13:38;;;;;;;;;;;;;;;;;;344527;28;981;-80
2021/10/27 00:13:49;;;;;;;;;;;;;;;;;;347226;28;825;-81
2021/10/27 00:14:00;;;;;;;;;;;;;;;;;;347079;28;1435;-87
2021/10/27 00:14:26;;;;;;;;;;;;;;;;;;347156;28;953;-88
2021/10/27 00:15:03;;;;;;;;;;;;;;;;;;347184;28;993;-81
2021/10/27 00:15:14;;;;;;;;;;;;;;;;;;345789;28;870;-86
2021/10/27 00:15:25;;;;;;;;;;;;;;;;;;344342;28;1502;-84
2021/10/27 00:15:51;;;;;;;;;;;;;;;;;;343126;28;929;-90
2021/10/27 00:16:02;;;;;;;;;;;;;;;;;;343098;28;866;-87
2021/10/27 00:16:13;;;;;;;;;;;;;;;;;;343136;28;948;-86
2021/10/27 00:16:23;;;;;;;;;;;;;;;;;;344435;28;1020;-85
2021/10/27 00:16:59;;;;;;;;;;;;;;;;;;345757;28;841;-82
2021/10/27 00:17:25;;;;;;;;;;;;;;;;;;345870;28;882;-87
2021/10/27 00:17:36;;;;;;;;;;;;;;;;;;348418;28;830;-84
2021/10/27 00:17:47;;;;;;;;;;;;;;;;;;348549;28;833;-86
2021/10/27 00:17:57;;;;;;;;;;;;;;;;;;347189;28;1557;-91
2021/10/27 00:18:07;;;;;;;;;;;;;;;;;;347216;28;1055;-88
2021/10/27 00:18:18;;;;;;;;;;;;;;;;;;346668;28;925;-85
2021/10/27 00:18:29;;;;;;;;;;;;;;;;;;347145;28;960;-87
2021/10/27 00:18:39;;;;;;;;;;;;;;;;;;347183;28;832;-90
2021/10/27 00:18:50;;;;;;;;;;;;;;;;;;347168;28;848;-86
2021/10/27 00:19:00;;;;;;;;;;;;;;;;;;347129;28;908;-85
2021/10/27 00:19:10;;;;;;;;;;;;;;;;;;348363;28;1040;-87
2021/10/27 00:19:21;;;;;;;;;;;;;;;;;;348468;28;1012;-87
2021/10/27 00:19:57;;;;;;;;;;;;;;;;;;348389;28;1147;-86
2021/10/27 00:20:23;;;;;;;;;;;;;;;;;;348574;28;829;-88
2021/10/27 00:20:33;;;;;;;;;;;;;;;;;;345374;28;961;-87
2021/10/27 00:20:44;;;;;;;;;;;;;;;;;;345756;28;1036;-80
2021/10/27 00:21:00;;;;;;;;;;;;;;;;;;345806;28;909;-80
2021/10/27 00:21:13;;;;;;;;;;;;;;;;;;347174;28;996;-89
2021/10/27 00:21:24;;;;;;;;;;;;;;;;;;347099;28;1283;-86
2021/10/27 00:21:34;;;;;;;;;;;;;;;;;;347090;28;1163;-90
2021/10/27 00:22:00;;;;;;;;;;;;;;;;;;347147;28;797;-90
2021/10/27 00:22:12;;;;;;;;;;;;;;;;;;347179;28;965;-90
2021/10/27 00:22:22;;;;;;;;;;;;;;;;;;344222;28;1152;-77
2021/10/27 00:22:33;;;;;;;;;;;;;;;;;;344347;28;989;-84
2021/10/27 00:22:52;;;;;;;;;;;;;;;;;;344466;28;857;-81
2021/10/27 00:23:05;;;;;;;;;;;;;;;;;;345840;28;882;-86
2021/10/27 00:23:15;;;;;;;;;;;;;;;;;;345665;28;1116;-87
2021/10/27 00:23:26;;;;;;;;;;;;;;;;;;344457;28;941;-87
2021/10/27 00:23:36;;;;;;;;;;;;;;;;;;347053;28;976;-83
2021/10/27 00:23:46;;;;;;;;;;;;;;;;;;347146;28;905;-90
2021/10/27 00:23:57;;;;;;;;;;;;;;;;;;344324;28;1554;-84
2021/10/27 00:24:07;;;;;;;;;;;;;;;;;;343150;28;1632;-88
2021/10/27 00:24:17;;;;;;;;;;;;;;;;;;345519;28;1422;-87
2021/10/27 00:24:28;;;;;;;;;;;;;;;;;;345869;28;1012;-88
2021/10/27 00:24:54;;;;;;;;;;;;;;;;;;348439;28;1021;-84
2021/10/27 00:25:05;;;;;;;;;;;;;;;;;;345738;28;1303;-83
2021/10/27 00:25:31;;;;;;;;;;;;;;;;;;347153;28;888;-86
2021/10/27 00:25:42;;;;;;;;;;;;;;;;;;347025;28;1147;-88
2021/10/27 00:25:52;;;;;;;;;;;;;;;;;;345717;28;953;-85
2021/10/27 00:26:44;;;;;;;;;;;;;;;;;;348543;28;818;-81
2021/10/27 00:27:20;;;;;;;;;;;;;;;;;;347198;28;1044;-83
2021/10/27 00:27:30;;;;;;;;;;;;;;;;;;348394;28;798;-78
2021/10/27 00:27:41;;;;;;;;;;;;;;;;;;347020;28;977;-80
2021/10/27 00:28:07;;;;;;;;;;;;;;;;;;348250;28;984;-82
2021/10/27 00:28:18;;;;;;;;;;;;;;;;;;347159;28;838;-86
2021/10/27 00:28:28;;;;;;;;;;;;;;;;;;345747;28;1309;-85
2021/10/27 00:28:39;;;;;;;;;;;;;;;;;;347114;28;1288;-83
2021/10/27 00:28:49;;;;;;;;;;;;;;;;;;347062;28;1377;-81
2021/10/27 00:29:25;;;;;;;;;;;;;;;;;;345795;28;837;-79
2021/10/27 00:30:18;;;;;;;;;;;;;;;;;;345775;28;1007;-82
2021/10/27 00:30:43;;;;;;;;;;;;;;;;;;345771;28;873;-83
2021/10/27 00:30:54;;;;;;;;;;;;;;;;;;345703;28;1652;-79
2021/10/27 00:31:04;;;;;;;;;;;;;;;;;;345692;28;1364;-89
2021/10/27 00:31:14;;;;;;;;;;;;;;;;;;346065;28;1036;-85
2021/10/27 00:31:25;;;;;;;;;;;;;;;;;;346928;28;1627;-88
2021/10/27 00:31:35;;;;;;;;;;;;;;;;;;343021;28;1297;-81
2021/10/27 00:31:46;;;;;;;;;;;;;;;;;;343257;28;957;-88
2021/10/27 00:31:56;;;;;;;;;;;;;;;;;;343151;28;969;-89
2021/10/27 00:32:07;;;;;;;;;;;;;;;;;;344471;28;1585;-91
2021/10/27 00:32:17;;;;;;;;;;;;;;;;;;347354;28;906;-80
2021/10/27 00:32:43;;;;;;;;;;;;;;;;;;347159;28;984;-87
2021/10/27 00:32:54;;;;;;;;;;;;;;;;;;345735;28;869;-86
2021/10/27 00:33:04;;;;;;;;;;;;;;;;;;344375;28;973;-83
2021/10/27 00:33:16;;;;;;;;;;;;;;;;;;343101;28;874;-83
2021/10/27 00:33:53;;;;;;;;;;;;;;;;;;348396;28;1281;-86
2021/10/27 00:34:03;;;;;;;;;;;;;;;;;;348516;28;1077;-86
2021/10/27 00:34:13;;;;;;;;;;;;;;;;;;345811;28;889;-89
2021/10/27 00:34:24;;;;;;;;;;;;;;;;;;345567;28;1534;-86
2021/10/27 00:34:34;;;;;;;;;;;;;;;;;;345763;28;810;-86
2021/10/27 00:34:45;;;;;;;;;;;;;;;;;;342855;28;1417;-87
2021/10/27 00:35:21;;;;;;;;;;;;;;;;;;344420;28;1190;-82
2021/10/27 00:35:31;;;;;;;;;;;;;;;;;;345577;28;1463;-82
2021/10/27 00:35:41;;;;;;;;;;;;;;;;;;345754;28;1616;-86
2021/10/27 00:35:52;;;;;;;;;;;;;;;;;;345768;28;893;-81
2021/10/27 00:36:19;;;;;;;;;;;;;;;;;;345800;28;861;-77
2021/10/27 00:36:29;;;;;;;;;;;;;;;;;;345846;28;806;-85
2021/10/27 00:36:40;;;;;;;;;;;;;;;;;;343115;28;839;-90
2021/10/27 00:36:50;;;;;;;;;;;;;;;;;;343013;28;966;-80
2021/10/27 00:37:26;;;;;;;;;;;;;;;;;;345752;28;1958;-79
2021/10/27 00:38:02;;;;;;;;;;;;;;;;;;345912;28;919;-88
2021/10/27 00:38:28;;;;;;;;;;;;;;;;;;345952;28;987;-81
2021/10/27 00:38:39;;;;;;;;;;;;;;;;;;345731;28;1048;-77
2021/10/27 00:38:49;;;;;;;;;;;;;;;;;;346960;28;1456;-78
2021/10/27 00:39:00;;;;;;;;;;;;;;;;;;345746;28;1440;-78
2021/10/27 00:39:10;;;;;;;;;;;;;;;;;;345495;28;1459;-85
2021/10/27 00:39:36;;;;;;;;;;;;;;;;;;344412;28;1028;-81
2021/10/27 00:39:49;;;;;;;;;;;;;;;;;;344410;28;1000;-85
2021/10/27 00:39:59;;;;;;;;;;;;;;;;;;345716;28;1194;-87
2021/10/27 00:40:10;;;;;;;;;;;;;;;;;;347116;28;996;-88
2021/10/27 00:40:20;;;;;;;;;;;;;;;;;;345825;28;858;-86
2021/10/27 00:40:31;;;;;;;;;;;;;;;;;;344459;28;846;-90
2021/10/27 00:40:41;;;;;;;;;;;;;;;;;;344401;28;832;-88
2021/10/27 00:40:51;;;;;;;;;;;;;;;;;;347084;28;948;-88
2021/10/27 00:41:02;;;;;;;;;;;;;;;;;;345656;28;1363;-84
2021/10/27 00:41:13;;;;;;;;;;;;;;;;;;345766;28;813;-84
2021/10/27 00:41:52;;;;;;;;;;;;;;;;;;348508;28;1008;-80
2021/10/27 00:42:18;;;;;;;;;;;;;;;;;;348481;28;876;-83
2021/10/27 00:42:28;;;;;;;;;;;;;;;;;;348442;28;853;-81
2021/10/27 00:43:05;;;;;;;;;;;;;;;;;;347018;28;1519;-84
2021/10/27 00:43:18;;;;;;;;;;;;;;;;;;347112;28;893;-85
2021/10/27 00:43:28;;;;;;;;;;;;;;;;;;345197;28;1629;-87
2021/10/27 00:43:39;;;;;;;;;;;;;;;;;;346811;28;1165;-89
2021/10/27 00:44:22;;;;;;;;;;;;;;;;;;347116;28;937;-87
2021/10/27 00:44:32;;;;;;;;;;;;;;;;;;347088;28;987;-82
2021/10/27 00:45:12;;;;;;;;;;;;;;;;;;347066;28;973;-87
2021/10/27 00:45:23;;;;;;;;;;;;;;;;;;345775;28;905;-84
2021/10/27 00:45:34;;;;;;;;;;;;;;;;;;342976;28;1215;-87
2021/10/27 00:45:59;;;;;;;;;;;;;;;;;;343055;28;997;-87
2021/10/27 00:46:16;;;;;;;;;;;;;;;;;;344590;28;1028;-87
2021/10/27 00:46:27;;;;;;;;;;;;;;;;;;345867;28;1271;-80
2021/10/27 00:46:37;;;;;;;;;;;;;;;;;;347196;28;510;-81
2021/10/27 00:47:16;;;;;;;;;;;;;;;;;;344298;28;1284;-81
2021/10/27 00:47:27;;;;;;;;;;;;;;;;;;344303;28;1185;-78
2021/10/27 00:47:38;;;;;;;;;;;;;;;;;;345665;28;1432;-84
2021/10/27 00:47:48;;;;;;;;;;;;;;;;;;345494;28;1558;-83
2021/10/27 00:47:58;;;;;;;;;;;;;;;;;;345602;28;1013;-80
2021/10/27 00:48:09;;;;;;;;;;;;;;;;;;344187;28;1163;-77
2021/10/27 00:48:19;;;;;;;;;;;;;;;;;;344497;28;885;-78
2021/10/27 00:48:29;;;;;;;;;;;;;;;;;;345898;28;814;-80
2021/10/27 00:48:40;;;;;;;;;;;;;;;;;;347141;28;929;-79
2021/10/27 00:48:50;;;;;;;;;;;;;;;;;;347127;28;876;-77
2021/10/27 00:49:01;;;;;;;;;;;;;;;;;;347172;28;980;-79
2021/10/27 00:49:11;;;;;;;;;;;;;;;;;;345628;28;1261;-78
2021/10/27 00:49:21;;;;;;;;;;;;;;;;;;345695;28;898;-75
2021/10/27 00:49:34;;;;;;;;;;;;;;;;;;345743;28;989;-76
2021/10/27 00:49:44;;;;;;;;;;;;;;;;;;345526;28;1375;-76
2021/10/27 00:49:55;;;;;;;;;;;;;;;;;;345796;28;905;-75
2021/10/27 00:50:05;;;;;;;;;;;;;;;;;;345697;28;848;-76
2021/10/27 00:50:41;;;;;;;;;;;;;;;;;;343041;28;936;-77
2021/10/27 00:50:52;;;;;;;;;;;;;;;;;;345685;28;1280;-75
2021/10/27 00:51:28;;;;;;;;;;;;;;;;;;344392;28;1008;-79
2021/10/27 00:51:38;;;;;;;;;;;;;;;;;;344279;28;1355;-76
2021/10/27 00:51:48;;;;;;;;;;;;;;;;;;344415;28;889;-75
2021/10/27 00:52:00;;;;;;;;;;;;;;;;;;344378;28;993;-76
2021/10/27 00:52:36;;;;;;;;;;;;;;;;;;345702;28;929;-75
2021/10/27 00:52:47;;;;;;;;;;;;;;;;;;343058;28;1314;-75
2021/10/27 00:52:57;;;;;;;;;;;;;;;;;;342988;28;988;-75
2021/10/27 00:53:08;;;;;;;;;;;;;;;;;;344288;28;925;-78
2021/10/27 00:53:18;;;;;;;;;;;;;;;;;;344102;28;1421;-77
2021/10/27 00:53:29;;;;;;;;;;;;;;;;;;345800;28;861;-76
2021/10/27 00:53:40;;;;;;;;;;;;;;;;;;344333;28;1168;-76
2021/10/27 00:53:50;;;;;;;;;;;;;;;;;;344322;28;1533;-75
2021/10/27 00:54:01;;;;;;;;;;;;;;;;;;345750;28;822;-82
2021/10/27 00:54:15;;;;;;;;;;;;;;;;;;345749;28;1047;-76
2021/10/27 00:54:51;;;;;;;;;;;;;;;;;;344394;28;981;-75
2021/10/27 00:55:01;;;;;;;;;;;;;;;;;;345768;28;945;-76
2021/10/27 00:55:13;;;;;;;;;;;;;;;;;;343059;28;1479;-78
2021/10/27 00:55:24;;;;;;;;;;;;;;;;;;345810;28;849;-77
2021/10/27 00:55:34;;;;;;;;;;;;;;;;;;345595;28;1534;-77
2021/10/27 00:55:45;;;;;;;;;;;;;;;;;;345718;28;535;-75
2021/10/27 00:56:04;;;;;;;;;;;;;;;;;;347133;28;992;-77
2021/10/27 00:56:16;;;;;;;;;;;;;;;;;;348509;28;846;-75
2021/10/27 00:56:26;;;;;;;;;;;;;;;;;;346825;28;1430;-77
2021/10/27 00:56:36;;;;;;;;;;;;;;;;;;347013;28;961;-78
2021/10/27 00:56:47;;;;;;;;;;;;;;;;;;345744;28;909;-78
2021/10/27 00:56:57;;;;;;;;;;;;;;;;;;346975;28;849;-76
2021/10/27 00:57:08;;;;;;;;;;;;;;;;;;344398;28;973;-75
2021/10/27 00:57:20;;;;;;;;;;;;;;;;;;344348;28;1902;-76
2021/10/27 00:57:30;;;;;;;;;;;;;;;;;;344287;28;1188;-75
2021/10/27 00:57:41;;;;;;;;;;;;;;;;;;347040;28;872;-76
2021/10/27 00:57:52;;;;;;;;;;;;;;;;;;344424;28;989;-77
2021/10/27 00:58:02;;;;;;;;;;;;;;;;;;345370;28;1478;-78
2021/10/27 00:58:12;;;;;;;;;;;;;;;;;;344187;28;1281;-77
2021/10/27 00:58:23;;;;;;;;;;;;;;;;;;344186;28;1370;-76
2021/10/27 00:58:49;;;;;;;;;;;;;;;;;;345730;28;993;-76
2021/10/27 00:59:16;;;;;;;;;;;;;;;;;;345783;28;925;-78
2021/10/27 00:59:53;;;;;;;;;;;;;;;;;;345694;28;925;-75
2021/10/27 01:00:05;;;;;;;;;;;;;;;;;;345799;28;854;-77
2021/10/27 01:00:15;;;;;;;;;;;;;;;;;;347153;28;866;-76
2021/10/27 01:00:26;;;;;;;;;;;;;;;;;;344237;28;1056;-79
2021/10/27 01:01:02;;;;;;;;;;;;;;;;;;344333;28;989;-78
2021/10/27 01:01:13;;;;;;;;;;;;;;;;;;342972;28;1249;-76
2021/10/27 01:01:39;;;;;;;;;;;;;;;;;;343063;28;847;-78
2021/10/27 01:01:49;;;;;;;;;;;;;;;;;;343033;28;1001;-77
2021/10/27 01:02:00;;;;;;;;;;;;;;;;;;342966;28;1596;-76
2021/10/27 01:02:22;;;;;;;;;;;;;;;;;;341695;28;1590;-76
2021/10/27 01:02:33;;;;;;;;;;;;;;;;;;344388;28;901;-78
2021/10/27 01:02:43;;;;;;;;;;;;;;;;;;344151;28;1447;-79
2021/10/27 01:02:54;;;;;;;;;;;;;;;;;;344196;28;1623;-81
2021/10/27 01:03:20;;;;;;;;;;;;;;;;;;341719;29;1022;-78
2021/10/27 01:03:32;;;;;;;;;;;;;;;;;;341622;29;958;-76
2021/10/27 01:03:42;;;;;;;;;;;;;;;;;;341745;28;843;-76
2021/10/27 01:03:52;;;;;;;;;;;;;;;;;;345636;28;1274;-84
2021/10/27 01:04:03;;;;;;;;;;;;;;;;;;345728;28;957;-77
2021/10/27 01:04:15;;;;;;;;;;;;;;;;;;345721;28;901;-77
2021/10/27 01:04:57;;;;;;;;;;;;;;;;;;345811;28;882;-79
2021/10/27 01:05:08;;;;;;;;;;;;;;;;;;344424;28;1468;-77
2021/10/27 01:05:18;;;;;;;;;;;;;;;;;;345711;28;977;-79
2021/10/27 01:05:44;;;;;;;;;;;;;;;;;;345672;28;1284;-76
2021/10/27 01:05:55;;;;;;;;;;;;;;;;;;344379;28;849;-76
2021/10/27 01:06:05;;;;;;;;;;;;;;;;;;345753;28;1028;-79
2021/10/27 01:06:16;;;;;;;;;;;;;;;;;;347103;28;928;-76
2021/10/27 01:06:32;;;;;;;;;;;;;;;;;;344365;28;1530;-78
2021/10/27 01:06:43;;;;;;;;;;;;;;;;;;344260;28;1168;-82
2021/10/27 01:06:54;;;;;;;;;;;;;;;;;;345628;28;1256;-82
2021/10/27 01:07:04;;;;;;;;;;;;;;;;;;344442;28;802;-76
2021/10/27 01:07:15;;;;;;;;;;;;;;;;;;344443;28;985;-89
2021/10/27 01:07:26;;;;;;;;;;;;;;;;;;345618;28;1486;-89
2021/10/27 01:07:36;;;;;;;;;;;;;;;;;;345666;28;1157;-88
2021/10/27 01:07:47;;;;;;;;;;;;;;;;;;348437;28;920;-88
2021/10/27 01:07:57;;;;;;;;;;;;;;;;;;344334;28;1392;-88
2021/10/27 01:08:07;;;;;;;;;;;;;;;;;;345631;28;969;-87
2021/10/27 01:08:18;;;;;;;;;;;;;;;;;;341832;28;1429;-89
2021/10/27 01:08:28;;;;;;;;;;;;;;;;;;344501;28;818;-88
2021/10/27 01:09:00;;;;;;;;;;;;;;;;;;347171;28;1024;-84
2021/10/27 01:09:10;;;;;;;;;;;;;;;;;;344282;28;1147;-90
2021/10/27 01:09:20;;;;;;;;;;;;;;;;;;344391;28;897;-86
2021/10/27 01:09:31;;;;;;;;;;;;;;;;;;344354;28;1210;-88
2021/10/27 01:10:07;;;;;;;;;;;;;;;;;;343079;28;938;-93
2021/10/27 01:10:59;;;;;;;;;;;;;;;;;;341719;29;882;-87
2021/10/27 01:11:38;;;;;;;;;;;;;;;;;;344454;28;926;-88
2021/10/27 01:11:49;;;;;;;;;;;;;;;;;;343595;28;989;-87
2021/10/27 01:12:16;;;;;;;;;;;;;;;;;;345656;28;1252;-91
2021/10/27 01:12:52;;;;;;;;;;;;;;;;;;344474;28;815;-89
2021/10/27 01:13:02;;;;;;;;;;;;;;;;;;343051;28;1457;-86
2021/10/27 01:13:13;;;;;;;;;;;;;;;;;;344123;28;1595;-89
2021/10/27 01:13:23;;;;;;;;;;;;;;;;;;340442;29;1499;-89
2021/10/27 01:13:49;;;;;;;;;;;;;;;;;;341593;29;993;-84
2021/10/27 01:14:33;;;;;;;;;;;;;;;;;;342973;28;1009;-87
2021/10/27 01:14:59;;;;;;;;;;;;;;;;;;342967;28;1004;-87
2021/10/27 01:15:09;;;;;;;;;;;;;;;;;;343026;28;1065;-87
2021/10/27 01:15:20;;;;;;;;;;;;;;;;;;344256;28;1468;-81
2021/10/27 01:15:31;;;;;;;;;;;;;;;;;;343791;28;811;-82
2021/10/27 01:15:57;;;;;;;;;;;;;;;;;;344387;28;949;-88
2021/10/27 01:16:07;;;;;;;;;;;;;;;;;;345150;28;878;-92
2021/10/27 01:16:33;;;;;;;;;;;;;;;;;;344426;28;1416;-88
2021/10/27 01:16:47;;;;;;;;;;;;;;;;;;344364;28;1288;-82
2021/10/27 01:16:57;;;;;;;;;;;;;;;;;;344369;28;819;-86
2021/10/27 01:17:08;;;;;;;;;;;;;;;;;;341675;28;1325;-87
2021/10/27 01:17:18;;;;;;;;;;;;;;;;;;343010;28;1907;-88
2021/10/27 01:17:29;;;;;;;;;;;;;;;;;;343130;28;905;-90
2021/10/27 01:17:39;;;;;;;;;;;;;;;;;;344309;28;1036;-90
2021/10/27 01:17:51;;;;;;;;;;;;;;;;;;344384;28;1371;-89
2021/10/27 01:18:02;;;;;;;;;;;;;;;;;;342767;28;1276;-87
2021/10/27 01:18:13;;;;;;;;;;;;;;;;;;344416;28;854;-89
2021/10/27 01:18:35;;;;;;;;;;;;;;;;;;345617;28;1492;-90
2021/10/27 01:18:46;;;;;;;;;;;;;;;;;;345672;28;929;-89
2021/10/27 01:18:59;;;;;;;;;;;;;;;;;;345831;28;925;-90
2021/10/27 01:19:10;;;;;;;;;;;;;;;;;;345728;28;1012;-91
2021/10/27 01:19:20;;;;;;;;;;;;;;;;;;343378;28;1040;-90
2021/10/27 01:19:49;;;;;;;;;;;;;;;;;;344666;28;985;-90
2021/10/27 01:20:00;;;;;;;;;;;;;;;;;;344678;28;857;-76
2021/10/27 01:20:10;;;;;;;;;;;;;;;;;;344679;28;862;-76
2021/10/27 01:20:21;;;;;;;;;;;;;;;;;;344349;28;1611;-76
2021/10/27 01:20:31;;;;;;;;;;;;;;;;;;343193;28;1386;-81
2021/10/27 01:20:41;;;;;;;;;;;;;;;;;;343287;28;1075;-82
2021/10/27 01:20:51;;;;;;;;;;;;;;;;;;343381;28;893;-76
2021/10/27 01:21:02;;;;;;;;;;;;;;;;;;344664;28;846;-78
2021/10/27 01:21:12;;;;;;;;;;;;;;;;;;343163;28;1300;-76
2021/10/27 01:21:40;;;;;;;;;;;;;;;;;;343181;28;985;-76
2021/10/27 01:22:06;;;;;;;;;;;;;;;;;;342050;29;854;-77
2021/10/27 01:22:17;;;;;;;;;;;;;;;;;;341902;29;994;-76
2021/10/27 01:22:31;;;;;;;;;;;;;;;;;;340681;29;835;-80
2021/10/27 01:22:57;;;;;;;;;;;;;;;;;;340658;29;1045;-76
2021/10/27 01:23:24;;;;;;;;;;;;;;;;;;343750;28;859;-78
2021/10/27 01:23:35;;;;;;;;;;;;;;;;;;344579;28;882;-82
2021/10/27 01:23:45;;;;;;;;;;;;;;;;;;346558;28;1041;-80
2021/10/27 01:24:24;;;;;;;;;;;;;;;;;;348080;28;810;-78
2021/10/27 01:24:34;;;;;;;;;;;;;;;;;;347335;28;850;-83
2021/10/27 01:24:45;;;;;;;;;;;;;;;;;;345928;28;873;-76
2021/10/27 01:24:55;;;;;;;;;;;;;;;;;;344705;28;962;-76
2021/10/27 01:25:07;;;;;;;;;;;;;;;;;;345877;28;1152;-76
2021/10/27 01:25:17;;;;;;;;;;;;;;;;;;346024;28;1068;-76
2021/10/27 01:25:27;;;;;;;;;;;;;;;;;;344666;28;1455;-76
2021/10/27 01:25:38;;;;;;;;;;;;;;;;;;345995;28;863;-76
2021/10/27 01:25:48;;;;;;;;;;;;;;;;;;343199;28;978;-79
2021/10/27 01:26:03;;;;;;;;;;;;;;;;;;343315;28;922;-76
2021/10/27 01:26:16;;;;;;;;;;;;;;;;;;344449;28;1709;-83
2021/10/27 01:26:27;;;;;;;;;;;;;;;;;;346000;28;992;-78
2021/10/27 01:26:37;;;;;;;;;;;;;;;;;;343189;28;1323;-80
2021/10/27 01:26:48;;;;;;;;;;;;;;;;;;343290;28;985;-89
2021/10/27 01:27:11;;;;;;;;;;;;;;;;;;344686;28;897;-90
2021/10/27 01:27:21;;;;;;;;;;;;;;;;;;344575;28;1172;-90
2021/10/27 01:27:42;;;;;;;;;;;;;;;;;;343419;28;819;-90
2021/10/27 01:27:56;;;;;;;;;;;;;;;;;;341744;29;1551;-87
2021/10/27 01:28:07;;;;;;;;;;;;;;;;;;345858;28;1184;-86
2021/10/27 01:28:17;;;;;;;;;;;;;;;;;;344601;28;974;-85
2021/10/27 01:28:28;;;;;;;;;;;;;;;;;;344662;28;882;-86
2021/10/27 01:29:20;;;;;;;;;;;;;;;;;;345994;28;941;-89
2021/10/27 01:29:31;;;;;;;;;;;;;;;;;;347439;28;943;-89
2021/10/27 01:30:11;;;;;;;;;;;;;;;;;;343239;28;974;-89
2021/10/27 01:30:22;;;;;;;;;;;;;;;;;;341919;29;990;-87
2021/10/27 01:30:48;;;;;;;;;;;;;;;;;;342075;28;1451;-87
2021/10/27 01:30:58;;;;;;;;;;;;;;;;;;341920;29;883;-83
2021/10/27 01:31:09;;;;;;;;;;;;;;;;;;344629;28;866;-80
2021/10/27 01:31:19;;;;;;;;;;;;;;;;;;345846;28;1423;-83
2021/10/27 01:31:33;;;;;;;;;;;;;;;;;;345989;28;942;-80
2021/10/27 01:31:58;;;;;;;;;;;;;;;;;;344597;28;1048;-80
2021/10/27 01:32:09;;;;;;;;;;;;;;;;;;341986;28;1589;-77
2021/10/27 01:32:47;;;;;;;;;;;;;;;;;;344670;28;863;-80
2021/10/27 01:32:57;;;;;;;;;;;;;;;;;;344418;28;1447;-82
2021/10/27 01:33:23;;;;;;;;;;;;;;;;;;345933;28;1651;-76
2021/10/27 01:33:33;;;;;;;;;;;;;;;;;;343214;28;1235;-77
2021/10/27 01:33:44;;;;;;;;;;;;;;;;;;340577;29;1276;-79
2021/10/27 01:33:55;;;;;;;;;;;;;;;;;;343062;28;1424;-77
2021/10/27 01:34:05;;;;;;;;;;;;;;;;;;343197;28;1044;-76
2021/10/27 01:34:31;;;;;;;;;;;;;;;;;;344623;28;886;-78
2021/10/27 01:34:42;;;;;;;;;;;;;;;;;;344591;28;994;-78
2021/10/27 01:34:52;;;;;;;;;;;;;;;;;;344636;28;893;-82
2021/10/27 01:35:03;;;;;;;;;;;;;;;;;;343303;28;788;-79
2021/10/27 01:35:28;;;;;;;;;;;;;;;;;;343242;28;898;-81
2021/10/27 01:35:54;;;;;;;;;;;;;;;;;;344638;28;835;-75
2021/10/27 01:36:05;;;;;;;;;;;;;;;;;;341944;29;886;-76
2021/10/27 01:37:07;;;;;;;;;;;;;;;;;;345920;28;926;-88
2021/10/27 01:38:10;;;;;;;;;;;;;;;;;;345612;28;882;-88
2021/10/27 01:38:20;;;;;;;;;;;;;;;;;;346415;28;1000;-89
2021/10/27 01:38:31;;;;;;;;;;;;;;;;;;347575;28;1507;-89
2021/10/27 01:38:41;;;;;;;;;;;;;;;;;;346007;28;1013;-91
2021/10/27 01:38:52;;;;;;;;;;;;;;;;;;344670;28;862;-90
2021/10/27 01:39:03;;;;;;;;;;;;;;;;;;344508;28;1067;-88
2021/10/27 01:39:13;;;;;;;;;;;;;;;;;;345963;28;1478;-91
2021/10/27 01:39:24;;;;;;;;;;;;;;;;;;343440;28;1150;-89
2021/10/27 01:39:34;;;;;;;;;;;;;;;;;;343532;28;905;-88
2021/10/27 01:39:45;;;;;;;;;;;;;;;;;;346373;28;1247;-89
2021/10/27 01:39:56;;;;;;;;;;;;;;;;;;344694;28;807;-89
2021/10/27 01:40:07;;;;;;;;;;;;;;;;;;343251;28;970;-90
2021/10/27 01:40:18;;;;;;;;;;;;;;;;;;344683;28;1080;-90
2021/10/27 01:40:28;;;;;;;;;;;;;;;;;;345899;28;1388;-85
2021/10/27 01:40:47;;;;;;;;;;;;;;;;;;346003;28;479;-86
2021/10/27 01:40:58;;;;;;;;;;;;;;;;;;346066;28;807;-83
2021/10/27 01:41:08;;;;;;;;;;;;;;;;;;343374;28;1692;-85
2021/10/27 01:41:18;;;;;;;;;;;;;;;;;;343155;28;1289;-87
2021/10/27 01:41:44;;;;;;;;;;;;;;;;;;346003;28;1419;-89
2021/10/27 01:42:20;;;;;;;;;;;;;;;;;;346022;28;1220;-86
2021/10/27 01:42:31;;;;;;;;;;;;;;;;;;346517;28;846;-88
2021/10/27 01:42:41;;;;;;;;;;;;;;;;;;346168;28;1438;-84
2021/10/27 01:42:53;;;;;;;;;;;;;;;;;;345963;28;1189;-87
2021/10/27 01:43:03;;;;;;;;;;;;;;;;;;346002;28;827;-85
2021/10/27 01:43:45;;;;;;;;;;;;;;;;;;346003;28;676;-86
2021/10/27 01:43:56;;;;;;;;;;;;;;;;;;345967;28;945;-85
2021/10/27 01:44:21;;;;;;;;;;;;;;;;;;344655;28;1709;-87
2021/10/27 01:44:32;;;;;;;;;;;;;;;;;;344664;28;1048;-85
2021/10/27 01:44:42;;;;;;;;;;;;;;;;;;344631;28;854;-84
2021/10/27 01:44:52;;;;;;;;;;;;;;;;;;345905;28;1455;-81
2021/10/27 01:45:03;;;;;;;;;;;;;;;;;;343999;28;1090;-89
2021/10/27 01:45:14;;;;;;;;;;;;;;;;;;344887;28;1603;-85
2021/10/27 01:45:40;;;;;;;;;;;;;;;;;;347133;28;1583;-82
2021/10/27 01:45:50;;;;;;;;;;;;;;;;;;347321;28;893;-79
2021/10/27 01:46:00;;;;;;;;;;;;;;;;;;347437;28;877;-81
2021/10/27 01:46:11;;;;;;;;;;;;;;;;;;347407;28;849;-79
2021/10/27 01:46:39;;;;;;;;;;;;;;;;;;347310;28;893;-81
2021/10/27 01:46:49;;;;;;;;;;;;;;;;;;343383;28;1476;-85
2021/10/27 01:46:59;;;;;;;;;;;;;;;;;;343276;28;1333;-77
2021/10/27 01:47:10;;;;;;;;;;;;;;;;;;344608;28;1428;-78
2021/10/27 01:47:20;;;;;;;;;;;;;;;;;;344585;28;1202;-77
2021/10/27 01:47:31;;;;;;;;;;;;;;;;;;347296;28;897;-80
2021/10/27 01:47:43;;;;;;;;;;;;;;;;;;341957;28;1490;-83
2021/10/27 01:47:53;;;;;;;;;;;;;;;;;;343201;28;1444;-76
2021/10/27 01:48:04;;;;;;;;;;;;;;;;;;343150;28;1397;-78
2021/10/27 01:48:14;;;;;;;;;;;;;;;;;;343241;28;1029;-76
2021/10/27 01:48:24;;;;;;;;;;;;;;;;;;346011;28;933;-76
2021/10/27 01:48:35;;;;;;;;;;;;;;;;;;345935;28;953;-80
2021/10/27 01:48:45;;;;;;;;;;;;;;;;;;347349;28;897;-77
2021/10/27 01:48:56;;;;;;;;;;;;;;;;;;342058;28;1468;-76
2021/10/27 01:49:08;;;;;;;;;;;;;;;;;;343280;28;920;-76
2021/10/27 01:49:33;;;;;;;;;;;;;;;;;;344520;28;1218;-76
2021/10/27 01:49:44;;;;;;;;;;;;;;;;;;344619;28;901;-80
2021/10/27 01:50:20;;;;;;;;;;;;;;;;;;344541;28;815;-85
2021/10/27 01:50:46;;;;;;;;;;;;;;;;;;345849;28;1367;-79
2021/10/27 01:50:56;;;;;;;;;;;;;;;;;;345938;28;889;-77
2021/10/27 01:51:06;;;;;;;;;;;;;;;;;;344641;28;881;-77
2021/10/27 01:51:33;;;;;;;;;;;;;;;;;;344616;28;1013;-79